sensor_id;sensor_type;location;lat;lon;timestamp;temperature;humidity
12661;DHT22;39039;51.802;5.710;2022-10-04T00:23:28;12.90;99.90
12661;DHT22;39039;51.802;5.710;2022-10-04T01:41:56;12.80;99.90
12661;DHT22;39039;51.802;5.710;2022-10-04T02:11:56;12.20;99.90
12661;DHT22;39039;51.802;5.710;2022-10-04T02:22:00;12.40;99.90
12661;DHT22;39039;51.802;5.710;2022-10-04T02:49:43;11.70;99.90
12661;DHT22;39039;51.802;5.710;2022-10-04T06:49:19;11.20;99.90
12661;DHT22;39039;51.802;5.710;2022-10-04T08:08:43;13.20;99.90
12661;DHT22;39039;51.802;5.710;2022-10-04T08:26:52;14.00;99.90
12661;DHT22;39039;51.802;5.710;2022-10-04T08:29:32;14.10;99.90
12661;DHT22;39039;51.802;5.710;2022-10-04T08:32:21;14.20;99.90
12661;DHT22;39039;51.802;5.710;2022-10-04T09:02:06;15.10;99.90
12661;DHT22;39039;51.802;5.710;2022-10-04T09:13:01;15.40;99.90
12661;DHT22;39039;51.802;5.710;2022-10-04T09:37:13;15.90;99.90
12661;DHT22;39039;51.802;5.710;2022-10-04T09:40:29;16.10;99.90
12661;DHT22;39039;51.802;5.710;2022-10-04T09:43:10;16.10;99.90
12661;DHT22;39039;51.802;5.710;2022-10-04T09:48:26;16.30;99.90
12661;DHT22;39039;51.802;5.710;2022-10-04T09:54:17;17.90;99.90
12661;DHT22;39039;51.802;5.710;2022-10-04T09:57:13;19.20;99.90
12661;DHT22;39039;51.802;5.710;2022-10-04T10:00:10;19.90;99.90
12661;DHT22;39039;51.802;5.710;2022-10-04T10:03:09;19.70;99.90
12661;DHT22;39039;51.802;5.710;2022-10-04T10:05:52;19.70;99.90
12661;DHT22;39039;51.802;5.710;2022-10-04T10:08:30;19.70;99.90
12661;DHT22;39039;51.802;5.710;2022-10-04T10:11:13;19.60;99.90
12661;DHT22;39039;51.802;5.710;2022-10-04T10:16:51;20.40;99.90
12661;DHT22;39039;51.802;5.710;2022-10-04T10:19:46;21.30;99.90
12661;DHT22;39039;51.802;5.710;2022-10-04T10:56:45;19.70;99.90
12661;DHT22;39039;51.802;5.710;2022-10-04T11:10:32;20.90;99.90
12661;DHT22;39039;51.802;5.710;2022-10-04T11:27:46;20.80;99.90
12661;DHT22;39039;51.802;5.710;2022-10-04T11:43:34;20.30;99.90
12661;DHT22;39039;51.802;5.710;2022-10-04T12:12:40;21.50;99.90
12661;DHT22;39039;51.802;5.710;2022-10-04T12:15:39;22.00;99.90
12661;DHT22;39039;51.802;5.710;2022-10-04T12:21:24;22.10;99.90
12661;DHT22;39039;51.802;5.710;2022-10-04T12:31:57;22.00;99.60
12661;DHT22;39039;51.802;5.710;2022-10-04T12:37:09;21.60;99.90
12661;DHT22;39039;51.802;5.710;2022-10-04T12:39:47;22.00;99.90
12661;DHT22;39039;51.802;5.710;2022-10-04T12:42:25;22.10;99.90
12661;DHT22;39039;51.802;5.710;2022-10-04T12:45:17;21.50;99.90
12661;DHT22;39039;51.802;5.710;2022-10-04T13:08:25;19.80;99.90
12661;DHT22;39039;51.802;5.710;2022-10-04T13:18:51;19.90;99.90
12661;DHT22;39039;51.802;5.710;2022-10-04T13:47:41;19.70;99.90
12661;DHT22;39039;51.802;5.710;2022-10-04T13:58:45;19.90;99.90
12661;DHT22;39039;51.802;5.710;2022-10-04T14:04:41;19.80;99.90
12661;DHT22;39039;51.802;5.710;2022-10-04T14:07:36;19.80;99.90
12661;DHT22;39039;51.802;5.710;2022-10-04T14:10:25;19.80;99.90
12661;DHT22;39039;51.802;5.710;2022-10-04T14:13:35;19.80;99.90
12661;DHT22;39039;51.802;5.710;2022-10-04T14:19:33;19.90;99.90
12661;DHT22;39039;51.802;5.710;2022-10-04T14:22:38;19.90;99.90
12661;DHT22;39039;51.802;5.710;2022-10-04T14:25:36;20.00;99.90
12661;DHT22;39039;51.802;5.710;2022-10-04T14:28:24;19.80;99.90
12661;DHT22;39039;51.802;5.710;2022-10-04T14:34:14;19.90;99.90
12661;DHT22;39039;51.802;5.710;2022-10-04T14:37:09;19.90;99.90
12661;DHT22;39039;51.802;5.710;2022-10-04T14:40:02;20.00;99.90
12661;DHT22;39039;51.802;5.710;2022-10-04T14:42:50;20.20;99.90
12661;DHT22;39039;51.802;5.710;2022-10-04T14:45:37;20.20;99.90
12661;DHT22;39039;51.802;5.710;2022-10-04T14:48:34;20.30;99.90
12661;DHT22;39039;51.802;5.710;2022-10-04T14:54:03;20.30;99.90
12661;DHT22;39039;51.802;5.710;2022-10-04T14:56:48;20.40;99.90
12661;DHT22;39039;51.802;5.710;2022-10-04T14:59:45;20.50;99.90
12661;DHT22;39039;51.802;5.710;2022-10-04T15:05:37;20.60;99.90
12661;DHT22;39039;51.802;5.710;2022-10-04T15:08:26;20.40;99.90
12661;DHT22;39039;51.802;5.710;2022-10-04T15:11:02;20.40;99.90
12661;DHT22;39039;51.802;5.710;2022-10-04T15:13:34;20.40;99.90
12661;DHT22;39039;51.802;5.710;2022-10-04T15:16:09;20.40;99.90
12661;DHT22;39039;51.802;5.710;2022-10-04T15:18:54;20.40;99.90
12661;DHT22;39039;51.802;5.710;2022-10-04T15:21:40;20.40;99.90
12661;DHT22;39039;51.802;5.710;2022-10-04T15:24:21;20.50;99.90
12661;DHT22;39039;51.802;5.710;2022-10-04T15:27:00;20.60;99.90
12661;DHT22;39039;51.802;5.710;2022-10-04T15:29:42;20.70;99.90
12661;DHT22;39039;51.802;5.710;2022-10-04T15:32:18;20.60;99.90
12661;DHT22;39039;51.802;5.710;2022-10-04T15:34:59;20.40;99.90
12661;DHT22;39039;51.802;5.710;2022-10-04T15:37:37;20.50;99.90
12661;DHT22;39039;51.802;5.710;2022-10-04T15:40:18;20.40;99.90
12661;DHT22;39039;51.802;5.710;2022-10-04T15:46:25;20.40;99.90
12661;DHT22;39039;51.802;5.710;2022-10-04T15:49:26;20.40;99.90
12661;DHT22;39039;51.802;5.710;2022-10-04T15:52:13;20.30;99.90
12661;DHT22;39039;51.802;5.710;2022-10-04T15:55:04;20.20;99.90
12661;DHT22;39039;51.802;5.710;2022-10-04T15:57:49;20.00;99.90
12661;DHT22;39039;51.802;5.710;2022-10-04T16:00:22;19.70;99.90
12661;DHT22;39039;51.802;5.710;2022-10-04T16:03:01;19.50;99.90
12661;DHT22;39039;51.802;5.710;2022-10-04T16:05:37;19.30;99.90
12661;DHT22;39039;51.802;5.710;2022-10-04T16:11:25;18.90;99.90
12661;DHT22;39039;51.802;5.710;2022-10-04T16:14:07;18.80;99.90
12661;DHT22;39039;51.802;5.710;2022-10-04T16:16:53;18.70;99.90
12661;DHT22;39039;51.802;5.710;2022-10-04T16:19:41;18.50;99.90
12661;DHT22;39039;51.802;5.710;2022-10-04T16:22:17;18.40;99.90
12661;DHT22;39039;51.802;5.710;2022-10-04T16:24:46;18.40;99.90
12661;DHT22;39039;51.802;5.710;2022-10-04T16:27:36;18.30;99.90
12661;DHT22;39039;51.802;5.710;2022-10-04T16:30:14;18.30;99.90
12661;DHT22;39039;51.802;5.710;2022-10-04T16:32:45;18.20;99.90
12661;DHT22;39039;51.802;5.710;2022-10-04T16:35:28;18.10;99.90
12661;DHT22;39039;51.802;5.710;2022-10-04T16:38:13;18.00;99.90
12661;DHT22;39039;51.802;5.710;2022-10-04T16:40:58;17.80;99.90
12661;DHT22;39039;51.802;5.710;2022-10-04T16:43:27;17.60;99.90
12661;DHT22;39039;51.802;5.710;2022-10-04T16:46:11;17.40;99.90
12661;DHT22;39039;51.802;5.710;2022-10-04T16:48:51;17.10;99.90
12661;DHT22;39039;51.802;5.710;2022-10-04T16:51:44;16.90;99.90
12661;DHT22;39039;51.802;5.710;2022-10-04T17:00:33;16.30;99.90
12661;DHT22;39039;51.802;5.710;2022-10-04T17:03:12;16.10;99.90
12661;DHT22;39039;51.802;5.710;2022-10-04T17:05:54;16.00;99.90
12661;DHT22;39039;51.802;5.710;2022-10-04T17:08:44;15.80;99.90
12661;DHT22;39039;51.802;5.710;2022-10-04T17:11:44;15.70;99.90
12661;DHT22;39039;51.802;5.710;2022-10-04T17:14:31;15.50;99.90
12661;DHT22;39039;51.802;5.710;2022-10-04T17:17:02;15.40;99.90
12661;DHT22;39039;51.802;5.710;2022-10-04T17:19:40;15.30;99.90
12661;DHT22;39039;51.802;5.710;2022-10-04T17:22:18;15.20;99.90
12661;DHT22;39039;51.802;5.710;2022-10-04T17:24:55;15.10;99.90
12661;DHT22;39039;51.802;5.710;2022-10-04T17:27:40;15.10;99.90
12661;DHT22;39039;51.802;5.710;2022-10-04T17:30:17;15.00;99.90
12661;DHT22;39039;51.802;5.710;2022-10-04T17:33:18;15.00;99.90
12661;DHT22;39039;51.802;5.710;2022-10-04T17:36:17;15.00;99.90
12661;DHT22;39039;51.802;5.710;2022-10-04T17:38:53;15.10;99.90
12661;DHT22;39039;51.802;5.710;2022-10-04T17:41:30;15.10;99.90
12661;DHT22;39039;51.802;5.710;2022-10-04T17:44:27;15.10;99.90
12661;DHT22;39039;51.802;5.710;2022-10-04T17:47:02;15.10;99.90
12661;DHT22;39039;51.802;5.710;2022-10-04T17:49:39;15.10;99.90
12661;DHT22;39039;51.802;5.710;2022-10-04T17:52:28;15.00;99.90
12661;DHT22;39039;51.802;5.710;2022-10-04T17:55:25;14.90;99.90
12661;DHT22;39039;51.802;5.710;2022-10-04T17:57:57;14.90;99.90
12661;DHT22;39039;51.802;5.710;2022-10-04T18:00:27;14.90;99.90
12661;DHT22;39039;51.802;5.710;2022-10-04T18:03:15;14.80;99.90
12661;DHT22;39039;51.802;5.710;2022-10-04T18:05:48;14.80;99.90
12661;DHT22;39039;51.802;5.710;2022-10-04T18:08:22;14.80;99.90
12661;DHT22;39039;51.802;5.710;2022-10-04T18:10:53;14.80;99.90
12661;DHT22;39039;51.802;5.710;2022-10-04T18:13:28;14.70;99.90
12661;DHT22;39039;51.802;5.710;2022-10-04T18:16:03;14.70;99.90
12661;DHT22;39039;51.802;5.710;2022-10-04T18:18:38;14.70;99.90
12661;DHT22;39039;51.802;5.710;2022-10-04T18:21:18;14.70;99.90
12661;DHT22;39039;51.802;5.710;2022-10-04T18:23:52;14.60;99.90
12661;DHT22;39039;51.802;5.710;2022-10-04T18:28:48;14.50;99.90
12661;DHT22;39039;51.802;5.710;2022-10-04T18:31:28;14.50;99.90
12661;DHT22;39039;51.802;5.710;2022-10-04T18:33:57;14.40;99.90
12661;DHT22;39039;51.802;5.710;2022-10-04T18:36:28;14.30;99.90
12661;DHT22;39039;51.802;5.710;2022-10-04T18:39:18;14.30;99.90
12661;DHT22;39039;51.802;5.710;2022-10-04T18:41:54;14.30;99.90
12661;DHT22;39039;51.802;5.710;2022-10-04T18:44:25;14.30;99.90
12661;DHT22;39039;51.802;5.710;2022-10-04T18:46:57;14.30;99.90
12661;DHT22;39039;51.802;5.710;2022-10-04T18:49:26;14.30;99.90
12661;DHT22;39039;51.802;5.710;2022-10-04T18:52:03;14.30;99.90
12661;DHT22;39039;51.802;5.710;2022-10-04T18:54:41;14.30;99.90
12661;DHT22;39039;51.802;5.710;2022-10-04T18:57:21;14.40;99.90
12661;DHT22;39039;51.802;5.710;2022-10-04T19:00:03;14.40;99.90
12661;DHT22;39039;51.802;5.710;2022-10-04T19:03:00;14.50;99.90
12661;DHT22;39039;51.802;5.710;2022-10-04T19:05:35;14.70;99.90
12661;DHT22;39039;51.802;5.710;2022-10-04T19:08:10;14.80;99.90
12661;DHT22;39039;51.802;5.710;2022-10-04T19:10:45;14.90;99.90
12661;DHT22;39039;51.802;5.710;2022-10-04T19:13:23;15.00;99.90
12661;DHT22;39039;51.802;5.710;2022-10-04T19:18:57;15.10;99.90
12661;DHT22;39039;51.802;5.710;2022-10-04T19:21:32;15.20;99.90
12661;DHT22;39039;51.802;5.710;2022-10-04T19:24:22;15.30;99.90
12661;DHT22;39039;51.802;5.710;2022-10-04T19:26:58;15.40;99.90
12661;DHT22;39039;51.802;5.710;2022-10-04T19:29:39;15.40;99.90
12661;DHT22;39039;51.802;5.710;2022-10-04T19:32:12;15.50;99.90
12661;DHT22;39039;51.802;5.710;2022-10-04T19:34:50;15.50;99.90
12661;DHT22;39039;51.802;5.710;2022-10-04T19:37:24;15.60;99.90
12661;DHT22;39039;51.802;5.710;2022-10-04T19:39:56;15.60;99.90
12661;DHT22;39039;51.802;5.710;2022-10-04T19:42:32;15.70;99.90
12661;DHT22;39039;51.802;5.710;2022-10-04T19:45:14;15.60;99.90
12661;DHT22;39039;51.802;5.710;2022-10-04T19:47:46;15.70;99.90
12661;DHT22;39039;51.802;5.710;2022-10-04T19:50:21;15.70;99.90
12661;DHT22;39039;51.802;5.710;2022-10-04T19:52:51;15.80;99.90
12661;DHT22;39039;51.802;5.710;2022-10-04T19:55:21;15.80;99.90
12661;DHT22;39039;51.802;5.710;2022-10-04T20:00:36;15.80;99.90
12661;DHT22;39039;51.802;5.710;2022-10-04T20:03:09;15.80;99.90
12661;DHT22;39039;51.802;5.710;2022-10-04T20:05:44;15.90;99.90
12661;DHT22;39039;51.802;5.710;2022-10-04T20:08:12;15.90;99.90
12661;DHT22;39039;51.802;5.710;2022-10-04T20:10:39;15.90;99.90
12661;DHT22;39039;51.802;5.710;2022-10-04T20:13:17;16.00;99.90
12661;DHT22;39039;51.802;5.710;2022-10-04T20:15:49;15.90;99.90
12661;DHT22;39039;51.802;5.710;2022-10-04T20:21:30;16.00;99.90
12661;DHT22;39039;51.802;5.710;2022-10-04T20:26:39;16.20;99.90
12661;DHT22;39039;51.802;5.710;2022-10-04T20:32:57;16.20;99.90
12661;DHT22;39039;51.802;5.710;2022-10-04T20:38:58;16.20;99.90
12661;DHT22;39039;51.802;5.710;2022-10-04T20:41:44;16.20;99.90
12661;DHT22;39039;51.802;5.710;2022-10-04T20:44:42;16.20;99.90
12661;DHT22;39039;51.802;5.710;2022-10-04T20:47:20;16.20;99.90
12661;DHT22;39039;51.802;5.710;2022-10-04T20:52:16;16.30;99.90
12661;DHT22;39039;51.802;5.710;2022-10-04T20:54:50;16.20;99.90
12661;DHT22;39039;51.802;5.710;2022-10-04T20:57:18;16.30;99.90
12661;DHT22;39039;51.802;5.710;2022-10-04T21:02:15;16.40;99.90
12661;DHT22;39039;51.802;5.710;2022-10-04T21:07:16;16.40;99.90
12661;DHT22;39039;51.802;5.710;2022-10-04T21:09:43;16.40;99.90
